Whitney, Mississippi
Current Conditions -  °F | °C
As of 7:35 AM on Saturday 25 Oct 2014 (Local Time) from KRNV Reporting Station
Haze Haze  
Wind Chill: 12°   Ceiling: Unl
Heat Index: 12°   Visibility: 5mi
Dew Point: 12°   Wind: 0mph
Humidity: 100%   Direction: NA
Pressure: 30.12"   Gusts: NA
Location:  33.8731°N, 90.5512°W
Report Text: KRNV 251235Z AUTO 00000KT 5SM BR CLR 12/12 A3012 RMK AO2 T01160116
Loading
Personal Weather Stations






























Interactive Weather Map
Tropical Storm Tracking
New forecast layout! Learn more

10-Day Weather Forecast

Advertisements
Track Severe Weather on mobile